createdAt,value
2023-02-16T00:00:56.664Z,982.08
2023-02-16T00:01:56.756Z,982.09
2023-02-16T00:02:56.747Z,982.08
2023-02-16T00:03:56.808Z,982.08
2023-02-16T00:04:56.851Z,982.07
2023-02-16T00:05:56.870Z,982.11
2023-02-16T00:06:56.903Z,982.11
2023-02-16T00:07:56.958Z,982.09
2023-02-16T00:08:57.014Z,982.15
2023-02-16T00:09:57.018Z,982.12
2023-02-16T00:10:57.067Z,982.17
2023-02-16T00:11:57.120Z,982.15
2023-02-16T00:12:57.137Z,982.11
2023-02-16T00:13:57.179Z,982.16
2023-02-16T00:14:57.221Z,982.16
2023-02-16T00:15:57.351Z,982.19
2023-02-16T00:16:57.295Z,982.14
2023-02-16T00:17:57.343Z,982.13
2023-02-16T00:18:57.379Z,982.15
2023-02-16T00:19:57.415Z,982.21
2023-02-16T00:20:57.492Z,982.20
2023-02-16T00:21:57.515Z,982.15
2023-02-16T00:22:57.530Z,982.17
2023-02-16T00:23:57.605Z,982.20
2023-02-16T00:24:57.613Z,982.16
2023-02-16T00:25:57.651Z,982.15
2023-02-16T00:26:57.703Z,982.14
2023-02-16T00:27:57.742Z,982.13
2023-02-16T00:28:57.801Z,982.11
2023-02-16T00:29:57.835Z,982.12
2023-02-16T00:30:57.961Z,982.14
2023-02-16T00:31:57.967Z,982.10
2023-02-16T00:32:57.935Z,982.11
2023-02-16T00:33:58.017Z,982.05
2023-02-16T00:34:58.011Z,982.01
2023-02-16T00:35:58.048Z,982.02
2023-02-16T00:36:58.090Z,982.02
2023-02-16T00:37:58.121Z,982.02
2023-02-16T00:38:58.204Z,982.02
2023-02-16T00:39:58.211Z,981.97
2023-02-16T00:40:58.250Z,981.98
2023-02-16T00:41:58.293Z,981.96
2023-02-16T00:42:58.328Z,981.95
2023-02-16T00:43:58.385Z,981.96
2023-02-16T00:44:58.412Z,981.93
2023-02-16T00:45:58.514Z,981.97
2023-02-16T00:46:58.492Z,981.94
2023-02-16T00:47:58.528Z,981.97
2023-02-16T00:48:58.561Z,981.93
2023-02-16T00:49:58.645Z,981.89
2023-02-16T00:50:58.652Z,981.89
2023-02-16T00:51:58.681Z,981.92
2023-02-16T00:52:58.776Z,981.88
2023-02-16T00:53:58.773Z,981.91
2023-02-16T00:54:58.820Z,981.87
2023-02-16T00:55:58.836Z,981.87
2023-02-16T00:56:58.891Z,981.88
2023-02-16T00:57:58.942Z,981.89
2023-02-16T00:58:58.967Z,981.88
2023-02-16T00:59:58.996Z,981.89
2023-02-16T01:00:59.034Z,981.94
2023-02-16T01:01:59.076Z,982.02
2023-02-16T01:02:59.141Z,982.04
2023-02-16T01:03:59.160Z,982.00
2023-02-16T01:04:59.205Z,981.99
2023-02-16T01:05:59.267Z,982.04
2023-02-16T01:06:59.271Z,982.04
2023-02-16T01:07:59.311Z,982.04
2023-02-16T01:08:59.370Z,982.03
2023-02-16T01:09:59.397Z,982.03
2023-02-16T01:10:59.442Z,982.05
2023-02-16T01:11:59.468Z,982.04
2023-02-16T01:12:59.538Z,982.03
2023-02-16T01:13:59.550Z,982.04
2023-02-16T01:14:59.584Z,982.03
2023-02-16T01:15:59.719Z,982.05
2023-02-16T01:16:59.676Z,982.05
2023-02-16T01:17:59.736Z,982.07
2023-02-16T01:18:59.753Z,982.05
2023-02-16T01:19:59.783Z,982.05
2023-02-16T01:20:59.859Z,982.06
2023-02-16T01:21:59.862Z,982.08
2023-02-16T01:22:59.901Z,982.08
2023-02-16T01:23:59.966Z,982.07
2023-02-16T01:24:59.984Z,982.11
2023-02-16T01:26:00.028Z,982.13
2023-02-16T01:27:00.128Z,982.12
2023-02-16T01:28:00.122Z,982.11
2023-02-16T01:29:00.150Z,982.12
2023-02-16T01:30:00.235Z,982.15
2023-02-16T01:31:00.306Z,982.15
2023-02-16T01:32:00.378Z,982.16
2023-02-16T01:33:00.323Z,982.17
2023-02-16T01:34:00.340Z,982.22
2023-02-16T01:35:00.382Z,982.16
2023-02-16T01:36:00.443Z,982.16
2023-02-16T01:37:00.473Z,982.16
2023-02-16T01:38:00.538Z,982.16
2023-02-16T01:39:00.554Z,982.18
2023-02-16T01:40:00.588Z,982.18
2023-02-16T01:41:00.677Z,982.16
2023-02-16T01:42:00.681Z,982.21
2023-02-16T01:43:00.740Z,982.18
2023-02-16T01:44:00.743Z,982.17
2023-02-16T01:45:00.788Z,982.15
2023-02-16T01:46:00.818Z,982.20
2023-02-16T01:47:00.854Z,982.17
2023-02-16T01:48:00.922Z,982.17
2023-02-16T01:49:00.934Z,982.19
2023-02-16T01:50:03.262Z,982.19
2023-02-16T01:51:01.231Z,982.18
2023-02-16T01:52:01.050Z,982.20
2023-02-16T01:53:01.097Z,982.17
2023-02-16T01:54:01.162Z,982.16
2023-02-16T01:55:01.173Z,982.15
2023-02-16T01:56:01.221Z,982.12
2023-02-16T01:57:01.259Z,982.19
2023-02-16T01:58:01.290Z,982.20
2023-02-16T01:59:01.356Z,982.20
2023-02-16T02:00:02.331Z,982.16
2023-02-16T02:01:01.573Z,982.16
2023-02-16T02:02:01.497Z,982.17
2023-02-16T02:03:01.513Z,982.13
2023-02-16T02:04:01.560Z,982.12
2023-02-16T02:05:01.576Z,982.12
2023-02-16T02:06:01.614Z,982.09
2023-02-16T02:07:01.654Z,982.08
2023-02-16T02:08:01.703Z,982.08
2023-02-16T02:09:01.761Z,982.07
2023-02-16T02:10:02.320Z,982.05
2023-02-16T02:11:02.225Z,982.07
2023-02-16T02:12:01.851Z,982.08
2023-02-16T02:13:01.899Z,982.12
2023-02-16T02:14:01.953Z,982.06
2023-02-16T02:15:01.967Z,982.09
2023-02-16T02:16:02.047Z,982.10
2023-02-16T02:17:02.064Z,982.12
2023-02-16T02:18:02.102Z,982.13
2023-02-16T02:19:02.138Z,982.12
2023-02-16T02:20:02.173Z,982.11
2023-02-16T02:21:02.562Z,982.12
2023-02-16T02:22:02.239Z,982.12
2023-02-16T02:23:02.301Z,982.08
2023-02-16T02:24:02.318Z,982.07
2023-02-16T02:25:02.362Z,982.05
2023-02-16T02:26:02.400Z,982.03
2023-02-16T02:27:02.468Z,982.01
2023-02-16T02:28:02.480Z,982.02
2023-02-16T02:29:02.523Z,982.04
2023-02-16T02:30:02.597Z,982.03
2023-02-16T02:31:03.055Z,982.02
2023-02-16T02:32:02.692Z,981.99
2023-02-16T02:33:02.707Z,981.96
2023-02-16T02:34:03.330Z,981.97
2023-02-16T02:35:02.798Z,982.00
2023-02-16T02:36:02.800Z,981.94
2023-02-16T02:37:02.840Z,981.98
2023-02-16T02:38:02.911Z,981.98
2023-02-16T02:39:02.914Z,981.93
2023-02-16T02:40:02.960Z,981.92
2023-02-16T02:41:03.356Z,981.91
2023-02-16T02:42:03.079Z,981.89
2023-02-16T02:43:03.105Z,981.92
2023-02-16T02:44:03.120Z,981.89
2023-02-16T02:45:03.160Z,981.94
2023-02-16T02:46:03.218Z,981.95
2023-02-16T02:47:03.239Z,981.99
2023-02-16T02:48:03.271Z,982.00
2023-02-16T02:49:03.346Z,982.01
2023-02-16T02:50:03.354Z,982.04
2023-02-16T02:51:03.682Z,982.03
2023-02-16T02:52:03.425Z,982.05
2023-02-16T02:53:03.515Z,982.05
2023-02-16T02:54:03.537Z,982.05
2023-02-16T02:55:03.556Z,982.06
2023-02-16T02:56:03.598Z,982.05
2023-02-16T02:57:03.637Z,982.05
2023-02-16T02:58:03.693Z,982.05
2023-02-16T02:59:03.713Z,982.08
2023-02-16T03:00:03.754Z,982.14
2023-02-16T03:01:04.122Z,982.12
2023-02-16T03:02:03.850Z,982.12
2023-02-16T03:03:03.883Z,982.10
2023-02-16T03:04:03.910Z,982.13
2023-02-16T03:05:03.975Z,982.15
2023-02-16T03:06:03.991Z,982.14
2023-02-16T03:07:04.117Z,982.14
2023-02-16T03:08:04.068Z,982.10
2023-02-16T03:09:04.096Z,982.12
2023-02-16T03:10:04.158Z,982.16
2023-02-16T03:11:04.289Z,982.18
2023-02-16T03:12:04.309Z,982.15
2023-02-16T03:13:04.275Z,982.19
2023-02-16T03:14:04.311Z,982.16
2023-02-16T03:15:04.355Z,982.12
2023-02-16T03:16:04.394Z,982.18
2023-02-16T03:17:04.448Z,982.21
2023-02-16T03:18:04.485Z,982.23
2023-02-16T03:19:04.495Z,982.19
2023-02-16T03:20:04.550Z,982.18
2023-02-16T03:21:05.664Z,982.21
2023-02-16T03:22:04.659Z,982.22
2023-02-16T03:23:04.658Z,982.22
2023-02-16T03:24:04.722Z,982.19
2023-02-16T03:25:04.752Z,982.18
2023-02-16T03:26:04.783Z,982.19
2023-02-16T03:27:04.814Z,982.16
2023-02-16T03:28:04.855Z,982.14
2023-02-16T03:29:04.932Z,982.15
2023-02-16T03:30:04.971Z,982.14
2023-02-16T03:31:05.206Z,982.12
2023-02-16T03:32:05.066Z,982.11
2023-02-16T03:33:05.063Z,982.12
2023-02-16T03:34:05.106Z,982.07
2023-02-16T03:35:05.142Z,982.11
2023-02-16T03:36:05.175Z,982.14
2023-02-16T03:37:05.210Z,982.12
2023-02-16T03:38:05.242Z,982.11
2023-02-16T03:39:05.322Z,982.08
2023-02-16T03:40:05.328Z,982.10
2023-02-16T03:41:05.719Z,982.14
2023-02-16T03:42:05.402Z,982.18
2023-02-16T03:43:05.448Z,982.14
2023-02-16T03:44:05.515Z,982.12
2023-02-16T03:45:06.336Z,982.15
2023-02-16T03:46:05.626Z,982.14
2023-02-16T03:47:05.607Z,982.14
2023-02-16T03:48:05.640Z,982.12
2023-02-16T03:49:05.689Z,982.10
2023-02-16T03:50:05.746Z,982.13
2023-02-16T03:51:05.948Z,982.18
2023-02-16T03:52:05.826Z,982.16
2023-02-16T03:53:05.849Z,982.17
2023-02-16T03:54:05.882Z,982.19
2023-02-16T03:55:05.917Z,982.17
2023-02-16T03:56:05.960Z,982.19
2023-02-16T03:57:06.031Z,982.22
2023-02-16T03:58:06.076Z,982.16
2023-02-16T03:59:06.084Z,982.15
2023-02-16T04:00:06.120Z,982.11
2023-02-16T04:01:06.658Z,982.14
2023-02-16T04:02:06.293Z,982.10
2023-02-16T04:03:06.237Z,982.12
2023-02-16T04:04:06.351Z,982.14
2023-02-16T04:05:06.336Z,982.15
2023-02-16T04:06:06.361Z,982.20
2023-02-16T04:07:06.400Z,982.19
2023-02-16T04:08:06.473Z,982.23
2023-02-16T04:09:06.502Z,982.27
2023-02-16T04:10:06.513Z,982.20
2023-02-16T04:11:06.652Z,982.26
2023-02-16T04:12:06.600Z,982.27
2023-02-16T04:13:06.661Z,982.24
2023-02-16T04:14:06.684Z,982.19
2023-02-16T04:15:06.720Z,982.21
2023-02-16T04:16:06.759Z,982.25
2023-02-16T04:17:06.795Z,982.25
2023-02-16T04:18:06.855Z,982.27
2023-02-16T04:19:06.870Z,982.26
2023-02-16T04:20:06.919Z,982.27
2023-02-16T04:21:06.985Z,982.28
2023-02-16T04:22:07.006Z,982.24
2023-02-16T04:23:07.050Z,982.17
2023-02-16T04:24:07.067Z,982.13
2023-02-16T04:25:07.106Z,982.18
2023-02-16T04:26:07.146Z,982.16
2023-02-16T04:27:07.218Z,982.12
2023-02-16T04:28:07.237Z,982.15
2023-02-16T04:29:07.272Z,982.14
2023-02-16T04:30:07.335Z,982.16
2023-02-16T04:31:07.728Z,982.20
2023-02-16T04:32:07.523Z,982.21
2023-02-16T04:33:07.432Z,982.17
2023-02-16T04:34:07.466Z,982.17
2023-02-16T04:35:07.509Z,982.15
2023-02-16T04:36:07.540Z,982.17
2023-02-16T04:37:07.644Z,982.16
2023-02-16T04:38:07.618Z,982.15
2023-02-16T04:39:07.662Z,982.17
2023-02-16T04:40:07.711Z,982.17
2023-02-16T04:41:07.745Z,982.12
2023-02-16T04:42:07.804Z,982.11
2023-02-16T04:43:07.822Z,982.12
2023-02-16T04:44:07.870Z,982.07
2023-02-16T04:45:07.892Z,982.05
2023-02-16T04:46:07.979Z,982.08
2023-02-16T04:47:08.005Z,982.02
2023-02-16T04:48:08.009Z,982.03
2023-02-16T04:49:08.049Z,982.05
2023-02-16T04:50:08.124Z,982.08
2023-02-16T04:51:08.153Z,982.09
2023-02-16T04:52:08.183Z,982.14
2023-02-16T04:53:08.216Z,982.16
2023-02-16T04:54:08.248Z,982.16
2023-02-16T04:55:08.320Z,982.19
2023-02-16T04:56:08.326Z,982.24
2023-02-16T04:57:08.363Z,982.26
2023-02-16T04:58:08.401Z,982.25
2023-02-16T04:59:08.463Z,982.24
2023-02-16T05:00:08.514Z,982.24
2023-02-16T05:01:08.654Z,982.24
2023-02-16T05:02:08.558Z,982.25
2023-02-16T05:03:08.623Z,982.32
2023-02-16T05:04:08.703Z,982.33
2023-02-16T05:05:08.699Z,982.36
2023-02-16T05:06:09.329Z,982.39
2023-02-16T05:07:08.764Z,982.42
2023-02-16T05:08:08.828Z,982.44
2023-02-16T05:09:08.853Z,982.41
2023-02-16T05:10:08.872Z,982.42
2023-02-16T05:11:08.938Z,982.42
2023-02-16T05:12:08.963Z,982.42
2023-02-16T05:13:09.020Z,982.43
2023-02-16T05:14:09.051Z,982.48
2023-02-16T05:15:09.075Z,982.43
2023-02-16T05:16:09.159Z,982.45
2023-02-16T05:17:09.146Z,982.41
2023-02-16T05:18:09.231Z,982.42
2023-02-16T05:19:09.232Z,982.45
2023-02-16T05:20:09.295Z,982.48
2023-02-16T05:21:09.321Z,982.44
2023-02-16T05:22:09.347Z,982.46
2023-02-16T05:23:09.399Z,982.43
2023-02-16T05:24:09.432Z,982.47
2023-02-16T05:25:09.492Z,982.45
2023-02-16T05:26:09.530Z,982.47
2023-02-16T05:27:09.554Z,982.43
2023-02-16T05:28:09.690Z,982.43
2023-02-16T05:29:09.625Z,982.41
2023-02-16T05:30:09.731Z,982.41
2023-02-16T05:31:09.844Z,982.41
2023-02-16T05:32:09.858Z,982.39
2023-02-16T05:33:09.817Z,982.41
2023-02-16T05:34:09.812Z,982.40
2023-02-16T05:35:09.881Z,982.38
2023-02-16T05:36:09.914Z,982.43
2023-02-16T05:37:09.943Z,982.46
2023-02-16T05:38:09.979Z,982.45
2023-02-16T05:39:10.020Z,982.52
2023-02-16T05:40:10.073Z,982.53
2023-02-16T05:41:10.101Z,982.58
2023-02-16T05:42:10.158Z,982.59
2023-02-16T05:43:10.179Z,982.62
2023-02-16T05:44:10.218Z,982.62
2023-02-16T05:45:10.273Z,982.63
2023-02-16T05:46:10.336Z,982.58
2023-02-16T05:47:10.328Z,982.57
2023-02-16T05:48:10.375Z,982.57
2023-02-16T05:49:10.405Z,982.59
2023-02-16T05:50:11.327Z,982.56
2023-02-16T05:51:10.519Z,982.54
2023-02-16T05:52:10.532Z,982.56
2023-02-16T05:53:10.575Z,982.56
2023-02-16T05:54:10.652Z,982.56
2023-02-16T05:55:10.703Z,982.56
2023-02-16T05:56:10.714Z,982.54
2023-02-16T05:57:10.739Z,982.53
2023-02-16T05:58:10.764Z,982.56
2023-02-16T05:59:10.805Z,982.59
2023-02-16T06:00:10.848Z,982.58
2023-02-16T06:01:10.903Z,982.57
2023-02-16T06:02:10.936Z,982.57
2023-02-16T06:03:10.970Z,982.60
2023-02-16T06:04:10.999Z,982.55
2023-02-16T06:05:11.042Z,982.58
2023-02-16T06:06:11.086Z,982.58
2023-02-16T06:07:13.109Z,982.59
2023-02-16T06:08:11.152Z,982.61
2023-02-16T06:09:11.231Z,982.64
2023-02-16T06:10:11.236Z,982.58
2023-02-16T06:11:11.266Z,982.62
2023-02-16T06:12:11.340Z,982.59
2023-02-16T06:13:11.350Z,982.63
2023-02-16T06:14:11.387Z,982.61
2023-02-16T06:15:11.460Z,982.65
2023-02-16T06:16:11.504Z,982.66
2023-02-16T06:17:11.501Z,982.64
2023-02-16T06:18:11.542Z,982.67
2023-02-16T06:19:11.587Z,982.70
2023-02-16T06:20:11.642Z,982.71
2023-02-16T06:21:11.668Z,982.69
2023-02-16T06:22:11.703Z,982.69
2023-02-16T06:23:11.744Z,982.71
2023-02-16T06:24:11.798Z,982.76
2023-02-16T06:25:11.814Z,982.77
2023-02-16T06:26:11.861Z,982.77
2023-02-16T06:27:11.889Z,982.75
2023-02-16T06:28:11.937Z,982.77
2023-02-16T06:29:12.009Z,982.75
2023-02-16T06:30:12.039Z,982.76
2023-02-16T06:31:12.141Z,982.75
2023-02-16T06:32:12.168Z,982.78
2023-02-16T06:33:12.129Z,982.72
2023-02-16T06:34:12.157Z,982.68
2023-02-16T06:35:12.216Z,982.68
2023-02-16T06:36:12.260Z,982.66
2023-02-16T06:37:12.305Z,982.67
2023-02-16T06:38:12.326Z,982.67
2023-02-16T06:39:12.362Z,982.67
2023-02-16T06:40:12.393Z,982.70
2023-02-16T06:41:12.434Z,982.70
2023-02-16T06:42:12.493Z,982.71
2023-02-16T06:43:12.525Z,982.70
2023-02-16T06:44:12.643Z,982.64
2023-02-16T06:45:12.596Z,982.69
2023-02-16T06:46:12.654Z,982.67
2023-02-16T06:47:12.684Z,982.70
2023-02-16T06:48:12.730Z,982.71
2023-02-16T06:49:12.744Z,982.71
2023-02-16T06:50:12.788Z,982.73
2023-02-16T06:51:12.840Z,982.81
2023-02-16T06:52:12.893Z,982.79
2023-02-16T06:53:12.897Z,982.80
2023-02-16T06:54:12.945Z,982.81
2023-02-16T06:55:12.982Z,982.79
2023-02-16T06:56:13.011Z,982.77
2023-02-16T06:57:13.085Z,982.76
2023-02-16T06:58:13.092Z,982.82
2023-02-16T06:59:13.145Z,982.86
2023-02-16T07:00:13.169Z,982.92
2023-02-16T07:01:13.297Z,982.94
2023-02-16T07:02:13.253Z,982.94
2023-02-16T07:03:13.351Z,982.91
2023-02-16T07:04:13.322Z,982.92
2023-02-16T07:05:13.370Z,982.94
2023-02-16T07:06:13.438Z,982.95
2023-02-16T07:07:13.453Z,982.96
2023-02-16T07:08:13.505Z,982.94
2023-02-16T07:09:13.532Z,982.89
2023-02-16T07:10:13.566Z,982.88
2023-02-16T07:11:13.600Z,982.92
2023-02-16T07:12:13.646Z,982.95
2023-02-16T07:13:13.708Z,982.91
2023-02-16T07:14:13.726Z,982.96
2023-02-16T07:15:13.753Z,982.95
2023-02-16T07:16:13.838Z,982.92
2023-02-16T07:17:13.840Z,982.95
2023-02-16T07:18:13.905Z,982.96
2023-02-16T07:19:13.939Z,982.96
2023-02-16T07:20:14.837Z,983.01
2023-02-16T07:21:13.989Z,983.04
2023-02-16T07:22:14.031Z,983.03
2023-02-16T07:23:14.104Z,983.08
2023-02-16T07:24:14.108Z,983.07
2023-02-16T07:25:14.145Z,983.11
2023-02-16T07:26:14.180Z,983.09
2023-02-16T07:27:14.221Z,983.04
2023-02-16T07:28:14.292Z,982.99
2023-02-16T07:29:14.297Z,982.99
2023-02-16T07:30:14.390Z,982.95
2023-02-16T07:31:14.490Z,982.97
2023-02-16T07:32:15.440Z,983.00
2023-02-16T07:33:14.464Z,983.02
2023-02-16T07:34:14.502Z,983.07
2023-02-16T07:35:14.567Z,983.09
2023-02-16T07:36:14.581Z,983.07
2023-02-16T07:37:14.627Z,983.08
2023-02-16T07:38:14.661Z,983.09
2023-02-16T07:39:14.716Z,983.13
2023-02-16T07:40:14.750Z,983.12
2023-02-16T07:41:14.786Z,983.11
2023-02-16T07:42:14.908Z,983.09
2023-02-16T07:43:14.846Z,983.10
2023-02-16T07:44:14.892Z,983.12
2023-02-16T07:45:14.927Z,983.16
2023-02-16T07:46:15.081Z,983.20
2023-02-16T07:47:15.030Z,983.22
2023-02-16T07:48:15.051Z,983.24
2023-02-16T07:49:15.092Z,983.27
2023-02-16T07:50:15.134Z,983.31
2023-02-16T07:51:15.197Z,983.28
2023-02-16T07:52:15.199Z,983.30
2023-02-16T07:53:15.242Z,983.31
2023-02-16T07:54:15.322Z,983.31
2023-02-16T07:55:15.334Z,983.35
2023-02-16T07:56:16.321Z,983.35
2023-02-16T07:57:15.395Z,983.36
2023-02-16T07:58:15.472Z,983.30
2023-02-16T07:59:15.484Z,983.32
2023-02-16T08:00:15.510Z,983.29
2023-02-16T08:01:16.028Z,983.30
2023-02-16T08:02:15.714Z,983.32
2023-02-16T08:03:15.775Z,983.30
2023-02-16T08:04:15.678Z,983.30
2023-02-16T08:05:15.746Z,983.26
2023-02-16T08:06:15.757Z,983.30
2023-02-16T08:07:15.787Z,983.33
2023-02-16T08:08:15.834Z,983.36
2023-02-16T08:09:15.876Z,983.39
2023-02-16T08:10:15.945Z,983.40
2023-02-16T08:11:15.959Z,983.37
2023-02-16T08:12:15.999Z,983.40
2023-02-16T08:13:16.032Z,983.38
2023-02-16T08:14:16.079Z,983.39
2023-02-16T08:15:16.143Z,983.39
2023-02-16T08:16:16.227Z,983.40
2023-02-16T08:17:16.197Z,983.34
2023-02-16T08:18:16.239Z,983.38
2023-02-16T08:19:16.293Z,983.37
2023-02-16T08:20:16.828Z,983.32
2023-02-16T08:21:16.365Z,983.34
2023-02-16T08:22:16.428Z,983.33
2023-02-16T08:23:16.439Z,983.32
2023-02-16T08:24:16.482Z,983.33
2023-02-16T08:25:16.522Z,983.33
2023-02-16T08:26:16.560Z,983.33
2023-02-16T08:27:16.747Z,983.32
2023-02-16T08:28:16.647Z,983.38
2023-02-16T08:29:16.693Z,983.32
2023-02-16T08:30:16.759Z,983.35
2023-02-16T08:31:16.805Z,983.35
2023-02-16T08:32:16.913Z,983.34
2023-02-16T08:33:16.855Z,983.37
2023-02-16T08:34:16.914Z,983.34
2023-02-16T08:35:16.934Z,983.35
2023-02-16T08:36:16.990Z,983.41
2023-02-16T08:37:17.058Z,983.47
2023-02-16T08:38:17.089Z,983.46
2023-02-16T08:39:17.110Z,983.44
2023-02-16T08:40:17.177Z,983.45
2023-02-16T08:41:17.208Z,983.49
2023-02-16T08:42:17.269Z,983.47
2023-02-16T08:43:17.294Z,983.49
2023-02-16T08:44:17.409Z,983.51
2023-02-16T08:45:17.384Z,983.49
2023-02-16T08:46:17.520Z,983.45
2023-02-16T08:47:17.514Z,983.45
2023-02-16T08:48:17.508Z,983.45
2023-02-16T08:49:17.577Z,983.48
2023-02-16T08:50:17.604Z,983.40
2023-02-16T08:51:17.736Z,983.36
2023-02-16T08:52:17.770Z,983.39
2023-02-16T08:53:17.767Z,983.34
2023-02-16T08:54:17.799Z,983.39
2023-02-16T08:55:17.812Z,983.39
2023-02-16T08:56:17.853Z,983.39
2023-02-16T08:57:17.932Z,983.40
2023-02-16T08:58:17.951Z,983.46
2023-02-16T08:59:17.986Z,983.46
2023-02-16T09:00:18.027Z,983.45
2023-02-16T09:01:18.206Z,983.40
2023-02-16T09:02:18.274Z,983.40
2023-02-16T09:03:18.156Z,983.36
2023-02-16T09:04:18.249Z,983.40
2023-02-16T09:05:18.261Z,983.40
2023-02-16T09:06:18.286Z,983.40
2023-02-16T09:07:18.388Z,983.44
2023-02-16T09:08:18.401Z,983.46
2023-02-16T09:09:18.455Z,983.45
2023-02-16T09:10:18.478Z,983.44
2023-02-16T09:11:18.550Z,983.40
2023-02-16T09:12:18.604Z,983.43
2023-02-16T09:13:18.631Z,983.46
2023-02-16T09:14:18.719Z,983.47
2023-02-16T09:15:18.753Z,983.50
2023-02-16T09:16:18.839Z,983.48
2023-02-16T09:17:18.847Z,983.48
2023-02-16T09:18:18.841Z,983.50
2023-02-16T09:19:18.954Z,983.48
2023-02-16T09:20:18.927Z,983.50
2023-02-16T09:21:19.010Z,983.55
2023-02-16T09:22:19.038Z,983.55
2023-02-16T09:23:19.060Z,983.51
2023-02-16T09:24:19.152Z,983.54
2023-02-16T09:25:19.155Z,983.50
2023-02-16T09:26:19.212Z,983.56
2023-02-16T09:27:19.261Z,983.54
2023-02-16T09:28:19.298Z,983.57
2023-02-16T09:29:19.363Z,983.57
2023-02-16T09:30:19.422Z,983.53
2023-02-16T09:31:19.554Z,983.51
2023-02-16T09:32:19.511Z,983.50
2023-02-16T09:33:19.515Z,983.51
2023-02-16T09:34:19.557Z,983.52
2023-02-16T09:35:19.585Z,983.51
2023-02-16T09:36:19.671Z,983.51
2023-02-16T09:37:19.713Z,983.51
2023-02-16T09:38:19.741Z,983.52
2023-02-16T09:39:19.853Z,983.54
2023-02-16T09:40:19.818Z,983.52
2023-02-16T09:41:19.860Z,983.54
2023-02-16T09:42:19.929Z,983.49
2023-02-16T09:43:20.056Z,983.49
2023-02-16T09:44:20.027Z,983.52
2023-02-16T09:45:20.033Z,983.49
2023-02-16T09:46:22.566Z,983.51
2023-02-16T09:47:20.150Z,983.51
2023-02-16T09:48:20.202Z,983.52
2023-02-16T09:49:20.205Z,983.51
2023-02-16T09:50:38.310Z,983.49
2023-02-16T09:51:20.953Z,983.48
2023-02-16T09:52:20.375Z,983.47
2023-02-16T09:53:20.501Z,983.50
2023-02-16T09:54:20.431Z,983.46
2023-02-16T09:55:20.464Z,983.50
2023-02-16T09:56:20.526Z,983.48
2023-02-16T09:57:20.556Z,983.53
2023-02-16T09:58:20.637Z,983.52
2023-02-16T09:59:20.679Z,983.51
2023-02-16T10:00:20.731Z,983.56
2023-02-16T10:01:20.817Z,983.53
2023-02-16T10:02:20.847Z,983.52
2023-02-16T10:03:20.957Z,983.55
2023-02-16T10:04:20.870Z,983.57
2023-02-16T10:05:20.969Z,983.61
2023-02-16T10:06:20.989Z,983.57
2023-02-16T10:07:20.996Z,983.58
2023-02-16T10:08:21.080Z,983.59
2023-02-16T10:09:21.117Z,983.62
2023-02-16T10:10:21.159Z,983.59
2023-02-16T10:11:21.254Z,983.58
2023-02-16T10:12:21.233Z,983.61
2023-02-16T10:13:21.270Z,983.65
2023-02-16T10:14:21.318Z,983.62
2023-02-16T10:15:21.361Z,983.60
2023-02-16T10:16:21.450Z,983.60
2023-02-16T10:17:21.479Z,983.64
2023-02-16T10:18:21.532Z,983.63
2023-02-16T10:19:21.559Z,983.64
2023-02-16T10:20:21.648Z,983.65
2023-02-16T10:21:21.704Z,983.66
2023-02-16T10:22:21.706Z,983.69
2023-02-16T10:23:21.768Z,983.70
2023-02-16T10:24:21.821Z,983.67
2023-02-16T10:25:21.878Z,983.58
2023-02-16T10:26:21.955Z,983.64
2023-02-16T10:27:21.942Z,983.55
2023-02-16T10:28:23.024Z,983.59
2023-02-16T10:29:22.038Z,983.57
2023-02-16T10:30:22.153Z,983.57
2023-02-16T10:31:22.283Z,983.52
2023-02-16T10:32:22.195Z,983.50
2023-02-16T10:33:22.232Z,983.54
2023-02-16T10:34:23.331Z,983.53
2023-02-16T10:35:22.351Z,983.53
2023-02-16T10:36:22.432Z,983.51
2023-02-16T10:37:22.439Z,983.51
2023-02-16T10:38:22.492Z,983.49
2023-02-16T10:39:22.567Z,983.52
2023-02-16T10:40:23.415Z,983.50
2023-02-16T10:41:22.677Z,983.52
2023-02-16T10:42:22.752Z,983.52
2023-02-16T10:43:22.749Z,983.53
2023-02-16T10:44:22.788Z,983.60
2023-02-16T10:45:22.832Z,983.56
2023-02-16T10:46:22.999Z,983.58
2023-02-16T10:47:22.944Z,983.57
2023-02-16T10:48:22.994Z,983.58
2023-02-16T10:49:23.035Z,983.54
2023-02-16T10:50:23.098Z,983.47
2023-02-16T10:51:25.364Z,983.45
2023-02-16T10:52:23.182Z,983.37
2023-02-16T10:53:23.234Z,983.48
2023-02-16T10:54:23.296Z,983.46
2023-02-16T10:55:23.384Z,983.49
2023-02-16T10:56:23.440Z,983.51
2023-02-16T10:57:23.442Z,983.44
2023-02-16T10:58:23.480Z,983.40
2023-02-16T10:59:23.535Z,983.46
2023-02-16T11:00:23.581Z,983.47
2023-02-16T11:01:23.699Z,983.43
2023-02-16T11:02:23.700Z,983.41
2023-02-16T11:03:23.729Z,983.42
2023-02-16T11:04:23.800Z,983.39
2023-02-16T11:05:23.825Z,983.35
2023-02-16T11:06:23.900Z,983.36
2023-02-16T11:07:23.925Z,983.34
2023-02-16T11:08:24.035Z,983.31
2023-02-16T11:09:24.016Z,983.30
2023-02-16T11:10:24.071Z,983.28
2023-02-16T11:11:24.136Z,983.22
2023-02-16T11:12:24.173Z,983.28
2023-02-16T11:13:24.226Z,983.22
2023-02-16T11:14:24.262Z,983.22
2023-02-16T11:15:24.319Z,983.18
2023-02-16T11:16:24.398Z,983.18
2023-02-16T11:17:24.405Z,983.15
2023-02-16T11:18:24.457Z,983.19
2023-02-16T11:19:25.383Z,983.13
2023-02-16T11:20:24.551Z,983.16
2023-02-16T11:21:24.645Z,983.22
2023-02-16T11:22:24.662Z,983.16
2023-02-16T11:23:24.692Z,983.14
2023-02-16T11:24:24.760Z,983.19
2023-02-16T11:25:24.804Z,983.14
2023-02-16T11:26:24.910Z,983.21
2023-02-16T11:27:25.887Z,983.20
2023-02-16T11:28:24.958Z,983.19
2023-02-16T11:29:24.976Z,983.15
2023-02-16T11:30:25.107Z,983.19
2023-02-16T11:31:25.109Z,983.17
2023-02-16T11:32:25.154Z,983.19
2023-02-16T11:33:25.239Z,983.18
2023-02-16T11:34:25.229Z,983.09
2023-02-16T11:35:25.889Z,983.01
2023-02-16T11:36:25.320Z,983.02
2023-02-16T11:37:25.376Z,983.01
2023-02-16T11:38:25.446Z,982.95
2023-02-16T11:39:25.497Z,983.00
2023-02-16T11:40:25.537Z,983.00
2023-02-16T11:41:25.578Z,982.96
2023-02-16T11:42:25.640Z,983.04
2023-02-16T11:43:25.650Z,982.96
2023-02-16T11:44:25.749Z,982.95
2023-02-16T11:45:25.747Z,982.96
2023-02-16T11:46:25.830Z,982.87
2023-02-16T11:47:25.840Z,982.88
2023-02-16T11:48:25.885Z,982.87
2023-02-16T11:49:25.958Z,982.87
2023-02-16T11:50:26.885Z,982.88
2023-02-16T11:51:26.058Z,982.92
2023-02-16T11:52:26.073Z,982.88
2023-02-16T11:53:26.128Z,982.82
2023-02-16T11:54:26.165Z,982.89
2023-02-16T11:55:26.220Z,982.86
2023-02-16T11:56:26.300Z,982.85
2023-02-16T11:57:26.331Z,982.84
2023-02-16T11:58:26.392Z,982.79
2023-02-16T11:59:26.430Z,982.84
2023-02-16T12:00:26.498Z,982.76
2023-02-16T12:01:26.512Z,982.77
2023-02-16T12:02:26.567Z,982.79
2023-02-16T12:03:26.603Z,982.83
2023-02-16T12:04:26.673Z,982.78
2023-02-16T12:05:26.794Z,982.85
2023-02-16T12:06:26.795Z,982.85
2023-02-16T12:07:26.801Z,982.89
2023-02-16T12:08:26.844Z,982.90
2023-02-16T12:09:26.962Z,982.81
2023-02-16T12:10:26.960Z,982.76
2023-02-16T12:11:26.999Z,982.83
2023-02-16T12:12:27.064Z,982.82
2023-02-16T12:13:27.100Z,982.82
2023-02-16T12:14:27.173Z,982.81
2023-02-16T12:15:27.201Z,982.82
2023-02-16T12:16:27.308Z,982.83
2023-02-16T12:17:27.278Z,982.80
2023-02-16T12:18:27.346Z,982.72
2023-02-16T12:19:27.380Z,982.67
2023-02-16T12:20:27.481Z,982.73
2023-02-16T12:21:27.516Z,982.81
2023-02-16T12:22:27.534Z,982.79
2023-02-16T12:23:27.609Z,982.76
2023-02-16T12:24:28.408Z,982.73
2023-02-16T12:25:27.694Z,982.69
2023-02-16T12:26:27.737Z,982.71
2023-02-16T12:27:27.809Z,982.68
2023-02-16T12:28:27.835Z,982.68
2023-02-16T12:29:27.896Z,982.66